Nearby METAR

 

KVTN - Valentine, Nebraska, USA
Distance from station: S 1.3mi, 2.1km
Updated: Thu, 13-Dec-2018 6:52am CST
Few Clouds
Few Clouds
 Wind from NW
Wind: NW 16 mph , 26 km/h, Gust: 25 mph , 41 km/h
Temperature: 36°F , 2°C
Wind Chill: 26°F , -3°C
Dew Point: 28°F , -2°C
Humidity: 75%
Barometer: 30.05 inHg , 1017.6 hPa
Clouds: Few Clouds
Visibility: 10 miles , 16 km
Cloud details: Few Clouds 4400 ft
2018/12/13 12:52 KVTN 131252Z AUTO 31014G22KT 10SM FEW044 02/M02 A3005 RMK AO2 PK WND 34028/1159 SLP195 T00171017
KANW - Ainsworth, Nebraska, USA
Distance from station: SE 36mi, 57km
Updated: Thu, 13-Dec-2018 7:35am CST
Partly cloudy
Partly cloudy
 Wind from NW
Wind: NW 21 mph , 33 km/h, Gust: 24 mph , 39 km/h
Temperature: 34°F , 1°C
Wind Chill: 22°F , -6°C
Dew Point: 30°F , -1°C
Humidity: 87%
Barometer: 30.05 inHg , 1017.6 hPa
Clouds: Partly cloudy
Visibility: 10 miles , 16 km
Cloud details: Partly cloudy 4000 ft
2018/12/13 13:35 KANW 131335Z AUTO 32018G21KT 10SM SCT040 01/M01 A3005 RMK AO2 T00101015
 
KICR - Winner, South Dakota, USA
Distance from station: NE 50mi, 80km
Updated: Thu, 13-Dec-2018 6:53am CST
Overcast
Overcast
 Wind from NW
Wind: NW 15 mph , 24 km/h, Gust: 28 mph , 44 km/h
Temperature: 36°F , 2°C
Wind Chill: 27°F , -3°C
Dew Point: 28°F , -2°C
Humidity: 75%
Barometer: 30.03 inHg , 1016.9 hPa
Clouds: Overcast
Visibility: 10 miles , 16 km
Cloud details: Overcast 5000 ft
2018/12/13 12:53 KICR 131253Z AUTO 31013G24KT 10SM OVC050 02/M02 A3003 RMK AO2 SLP189 T00221017
KTIF - Thedford, Nebraska, USA
Distance from station: S 63mi, 101km
Updated: Thu, 13-Dec-2018 7:35am CST
Partly cloudy
Partly cloudy
 Wind from NW
Wind: NW 18 mph , 30 km/h, Gust: 25 mph , 41 km/h
Temperature: 34°F , 1°C
Wind Chill: 23°F , -5°C
Dew Point: 28°F , -2°C
Humidity: 81%
Barometer: 30.08 inHg , 1018.6 hPa
Clouds: Partly cloudy
Visibility: 10 miles , 16 km
Cloud details: Partly cloudy 3500 ft
2018/12/13 13:35 KTIF 131335Z AUTO 32016G22KT 10SM SCT035 01/M02 A3008 RMK AO2 T00051017
 
K9V9 - Chamberlain, South Dakota, USA
Distance from station: NE 87mi, 141km
Updated: Thu, 13-Dec-2018 7:35am CST
Overcast
Overcast
 Wind from NW
Wind: NW 10 mph , 17 km/h
Temperature: 37°F , 3°C
Wind Chill: 30°F , -1°C
Dew Point: 34°F , 1°C
Humidity: 87%
Barometer: 30.05 inHg , 1017.6 hPa
Clouds: Overcast
Visibility: 10 miles , 16 km
Cloud details: Partly cloudy 6000 ft
Mostly cloudy 6500 ft
Overcast 8500 ft
2018/12/13 13:35 K9V9 131335Z AUTO 31009KT 10SM SCT060 BKN065 OVC085 03/01 A3005 RMK AO2 T00290005
KIEN - Pine Ridge, South Dakota, USA
Distance from station: W 99mi, 160km
Updated: Thu, 13-Dec-2018 6:52am CST
Clear
Clear
 Wind from W
Wind: W 7 mph , 11 km/h
Temperature: 25°F , -4°C
Wind Chill: 17°F , -8°C
Dew Point: 21°F , -6°C
Humidity: 86%
Barometer: 30.14 inHg , 1020.7 hPa
Clouds: Clear
Visibility: 10 miles , 16 km
2018/12/13 12:52 KIEN 131252Z AUTO 27006KT 10SM CLR M04/M06 A3014 RMK AO2 SLP238 T10391061
 
KPIR - Pierre, South Dakota, USA
Distance from station: N 105mi, 169km
Updated: Thu, 13-Dec-2018 6:53am CST
Mostly cloudy
Mostly cloudy
 Wind from NW
Wind: NW 18 mph , 30 km/h, Gust: 32 mph , 52 km/h
Temperature: 36°F , 2°C
Wind Chill: 26°F , -3°C
Dew Point: 28°F , -2°C
Humidity: 75%
Barometer: 30.05 inHg , 1017.6 hPa
Clouds: Mostly cloudy
Visibility: 10 miles , 16 km
Cloud details: Mostly cloudy 10000 ft
2018/12/13 12:53 KPIR 131253Z AUTO 31016G28KT 10SM BKN100 02/M02 A3005 RMK AO2 PK WND 31028/1230 SLP190 T00171022
KLBF - North Platte, Nebraska, USA
Distance from station: S 120mi, 193km
Updated: Thu, 13-Dec-2018 6:53am CST
Clear
Clear
 Wind from N
Wind: N 18 mph , 30 km/h, Gust: 29 mph , 46 km/h
Temperature: 36°F , 2°C
Wind Chill: 26°F , -3°C
Dew Point: 28°F , -2°C
Humidity: 75%
Barometer: 30.06 inHg , 1017.9 hPa
Clouds: Clear
Visibility: 10 miles , 16 km
2018/12/13 12:53 KLBF 131253Z AUTO 35016G25KT 10SM CLR 02/M02 A3006 RMK AO2 PK WND 34029/1207 SLP200 T00171022
 
KBBW - Broken Bow Muni, Nebraska, USA
Distance from station: SSE 110mi, 177km
Updated: Thu, 13-Dec-2018 7:38am CST
Overcast
Overcast
 Wind from NNW
Wind: NNW 26 mph , 43 km/h, Gust: 39 mph , 63 km/h
Temperature: 36°F , 2°C
Wind Chill: 24°F , -4°C
Dew Point: 30°F , -1°C
Humidity: 81%
Barometer: 30.03 inHg , 1016.9 hPa
Clouds: Overcast
Visibility: 10 miles , 16 km
Cloud details: Few Clouds 2100 ft
Overcast 3100 ft
2018/12/13 13:38 KBBW 131338Z AUTO 33023G34KT 10SM FEW021 OVC031 02/M01 A3003 RMK AO2 PK WND 34036/1257 T00221011
KRAP - Rapid City, South Dakota, USA
Distance from station: NW 149mi, 240km
Updated: Thu, 13-Dec-2018 6:52am CST
Clear
Clear
 Wind from NW
Wind: NW 12 mph , 19 km/h
Temperature: 30°F , -1°C
Wind Chill: 20°F , -7°C
Dew Point: 18°F , -8°C
Humidity: 59%
Barometer: 30.12 inHg , 1020 hPa
Clouds: Clear
Visibility: 10 miles , 16 km
2018/12/13 12:52 KRAP 131252Z 32010KT 10SM CLR M01/M08 A3012 RMK AO2 SLP228 T10111078 $